createdAt,value
2022-12-12T00:00:58.546Z,6.80
2022-12-12T00:01:54.754Z,6.70
2022-12-12T00:02:54.865Z,6.10
2022-12-12T00:03:54.737Z,6.70
2022-12-12T00:04:54.703Z,6.80
2022-12-12T00:05:54.725Z,7.20
2022-12-12T00:06:54.707Z,5.80
2022-12-12T00:07:54.723Z,6.60
2022-12-12T00:08:54.662Z,5.60
2022-12-12T00:09:54.650Z,6.40
2022-12-12T00:10:54.675Z,7.00
2022-12-12T00:11:54.633Z,7.10
2022-12-12T00:12:54.659Z,7.10
2022-12-12T00:13:54.626Z,6.60
2022-12-12T00:14:54.603Z,5.70
2022-12-12T00:15:54.689Z,6.80
2022-12-12T00:16:54.609Z,7.10
2022-12-12T00:17:54.569Z,7.60
2022-12-12T00:18:54.575Z,6.80
2022-12-12T00:19:54.549Z,6.90
2022-12-12T00:20:54.585Z,6.50
2022-12-12T00:21:54.532Z,6.30
2022-12-12T00:22:54.515Z,7.30
2022-12-12T00:23:54.559Z,7.10
2022-12-12T00:24:54.501Z,6.90
2022-12-12T00:25:54.501Z,6.30
2022-12-12T00:26:54.476Z,7.20
2022-12-12T00:27:54.457Z,6.30
2022-12-12T00:28:54.456Z,7.20
2022-12-12T00:29:54.458Z,8.00
2022-12-12T00:30:54.480Z,7.00
2022-12-12T00:31:54.418Z,7.00
2022-12-12T00:32:54.422Z,6.50
2022-12-12T00:33:54.398Z,6.30
2022-12-12T00:34:54.425Z,6.70
2022-12-12T00:35:54.423Z,7.10
2022-12-12T00:36:54.382Z,5.90
2022-12-12T00:37:54.367Z,6.60
2022-12-12T00:38:54.370Z,8.10
2022-12-12T00:39:54.335Z,6.40
2022-12-12T00:40:54.352Z,7.50
2022-12-12T00:41:54.315Z,5.90
2022-12-12T00:42:54.308Z,7.10
2022-12-12T00:43:54.309Z,5.50
2022-12-12T00:44:54.288Z,6.80
2022-12-12T00:45:54.289Z,7.10
2022-12-12T00:46:54.323Z,7.50
2022-12-12T00:47:54.269Z,7.00
2022-12-12T00:48:54.258Z,6.40
2022-12-12T00:49:54.250Z,6.90
2022-12-12T00:50:54.250Z,7.50
2022-12-12T00:51:54.253Z,7.10
2022-12-12T00:52:54.207Z,6.70
2022-12-12T00:53:54.203Z,7.90
2022-12-12T00:54:54.196Z,7.00
2022-12-12T00:55:54.176Z,7.70
2022-12-12T00:56:54.190Z,7.20
2022-12-12T00:57:54.162Z,7.10
2022-12-12T00:58:54.145Z,7.00
2022-12-12T00:59:54.130Z,7.00
2022-12-12T01:00:54.128Z,7.90
2022-12-12T01:01:54.164Z,8.50
2022-12-12T01:02:54.129Z,8.30
2022-12-12T01:03:54.089Z,6.90
2022-12-12T01:04:54.095Z,7.80
2022-12-12T01:05:54.102Z,6.50
2022-12-12T01:06:54.103Z,6.80
2022-12-12T01:07:54.145Z,7.70
2022-12-12T01:08:54.054Z,7.60
2022-12-12T01:09:54.028Z,7.90
2022-12-12T01:10:54.023Z,7.60
2022-12-12T01:11:54.037Z,7.70
2022-12-12T01:12:54.017Z,8.40
2022-12-12T01:13:54.017Z,7.30
2022-12-12T01:14:53.991Z,7.30
2022-12-12T01:15:54.108Z,8.20
2022-12-12T01:16:53.995Z,8.50
2022-12-12T01:17:53.952Z,7.90
2022-12-12T01:18:53.980Z,7.80
2022-12-12T01:19:53.928Z,7.90
2022-12-12T01:20:53.917Z,7.10
2022-12-12T01:21:53.932Z,10.20
2022-12-12T01:22:53.894Z,9.40
2022-12-12T01:23:53.892Z,6.80
2022-12-12T01:24:53.882Z,6.90
2022-12-12T01:25:53.883Z,8.80
2022-12-12T01:26:53.889Z,7.20
2022-12-12T01:27:53.912Z,7.50
2022-12-12T01:28:53.836Z,7.20
2022-12-12T01:29:53.867Z,7.80
2022-12-12T01:30:53.897Z,6.70
2022-12-12T01:31:53.827Z,8.00
2022-12-12T01:32:53.812Z,7.30
2022-12-12T01:33:53.783Z,8.10
2022-12-12T01:34:53.779Z,7.10
2022-12-12T01:35:53.772Z,8.10
2022-12-12T01:36:53.784Z,8.30
2022-12-12T01:37:53.750Z,8.20
2022-12-12T01:38:53.776Z,8.10
2022-12-12T01:39:53.729Z,7.10
2022-12-12T01:40:53.715Z,8.00
2022-12-12T01:41:53.726Z,7.50
2022-12-12T01:42:53.714Z,6.50
2022-12-12T01:43:53.711Z,7.60
2022-12-12T01:44:53.683Z,6.70
2022-12-12T01:46:00.242Z,7.50
2022-12-12T01:47:01.423Z,7.50
2022-12-12T01:48:05.047Z,7.60
2022-12-12T01:48:53.644Z,8.70
2022-12-12T01:49:53.614Z,6.00
2022-12-12T01:50:53.620Z,8.00
2022-12-12T01:51:53.614Z,7.50
2022-12-12T01:52:53.609Z,7.70
2022-12-12T01:53:53.578Z,7.90
2022-12-12T01:54:53.593Z,8.00
2022-12-12T01:55:53.585Z,6.80
2022-12-12T01:56:53.588Z,8.20
2022-12-12T01:57:53.578Z,8.20
2022-12-12T01:58:53.538Z,7.00
2022-12-12T01:59:53.519Z,7.20
2022-12-12T02:00:53.597Z,7.00
2022-12-12T02:01:53.566Z,7.20
2022-12-12T02:02:53.504Z,7.00
2022-12-12T02:03:53.477Z,7.90
2022-12-12T02:04:53.484Z,7.50
2022-12-12T02:05:53.490Z,7.20
2022-12-12T02:06:53.468Z,8.30
2022-12-12T02:07:53.485Z,6.90
2022-12-12T02:08:53.427Z,7.10
2022-12-12T02:09:53.416Z,7.60
2022-12-12T02:10:53.422Z,7.90
2022-12-12T02:11:53.419Z,7.60
2022-12-12T02:12:53.418Z,8.70
2022-12-12T02:13:53.384Z,6.70
2022-12-12T02:14:53.387Z,8.20
2022-12-12T02:15:59.897Z,8.00
2022-12-12T02:16:53.365Z,8.30
2022-12-12T02:17:53.328Z,7.90
2022-12-12T02:18:53.331Z,7.90
2022-12-12T02:19:53.315Z,9.30
2022-12-12T02:20:53.307Z,9.30
2022-12-12T02:21:53.348Z,8.30
2022-12-12T02:22:53.299Z,7.20
2022-12-12T02:23:53.271Z,7.90
2022-12-12T02:24:53.275Z,7.60
2022-12-12T02:25:53.260Z,7.30
2022-12-12T02:26:53.266Z,8.30
2022-12-12T02:27:53.236Z,9.60
2022-12-12T02:28:53.222Z,8.00
2022-12-12T02:29:53.260Z,8.60
2022-12-12T02:30:53.204Z,8.40
2022-12-12T02:31:53.319Z,9.00
2022-12-12T02:32:53.198Z,10.10
2022-12-12T02:33:53.174Z,8.20
2022-12-12T02:34:53.190Z,9.20
2022-12-12T02:35:53.151Z,8.40
2022-12-12T02:36:53.173Z,7.80
2022-12-12T02:37:53.126Z,7.40
2022-12-12T02:38:53.123Z,8.20
2022-12-12T02:39:53.128Z,7.70
2022-12-12T02:40:53.101Z,7.10
2022-12-12T02:41:53.119Z,7.30
2022-12-12T02:42:53.114Z,7.70
2022-12-12T02:43:53.079Z,7.30
2022-12-12T02:44:53.061Z,7.30
2022-12-12T02:45:53.046Z,7.90
2022-12-12T02:46:53.136Z,8.20
2022-12-12T02:47:53.051Z,9.40
2022-12-12T02:48:53.016Z,9.60
2022-12-12T02:49:53.015Z,7.50
2022-12-12T02:50:53.020Z,8.30
2022-12-12T02:51:53.017Z,8.00
2022-12-12T02:52:53.028Z,7.30
2022-12-12T02:53:52.974Z,8.50
2022-12-12T02:54:52.960Z,9.00
2022-12-12T02:55:52.965Z,7.60
2022-12-12T02:56:52.942Z,9.10
2022-12-12T02:57:52.953Z,8.10
2022-12-12T02:58:52.919Z,8.60
2022-12-12T02:59:52.945Z,7.30
2022-12-12T03:00:52.973Z,8.50
2022-12-12T03:01:52.917Z,7.20
2022-12-12T03:02:52.897Z,8.70
2022-12-12T03:03:52.859Z,8.10
2022-12-12T03:04:52.874Z,8.00
2022-12-12T03:05:52.842Z,7.60
2022-12-12T03:06:52.841Z,7.70
2022-12-12T03:07:52.968Z,8.10
2022-12-12T03:08:52.820Z,8.00
2022-12-12T03:09:52.809Z,7.60
2022-12-12T03:10:52.798Z,8.40
2022-12-12T03:11:52.791Z,9.30
2022-12-12T03:12:52.792Z,9.50
2022-12-12T03:13:52.752Z,7.70
2022-12-12T03:14:52.765Z,9.20
2022-12-12T03:15:52.843Z,8.70
2022-12-12T03:16:52.771Z,7.70
2022-12-12T03:17:52.771Z,8.50
2022-12-12T03:18:52.742Z,7.70
2022-12-12T03:19:52.719Z,8.00
2022-12-12T03:20:52.688Z,7.60
2022-12-12T03:21:52.678Z,9.10
2022-12-12T03:22:52.701Z,10.10
2022-12-12T03:23:52.662Z,8.00
2022-12-12T03:24:52.663Z,8.40
2022-12-12T03:25:52.644Z,7.50
2022-12-12T03:26:52.630Z,7.60
2022-12-12T03:27:52.644Z,7.80
2022-12-12T03:28:52.613Z,8.90
2022-12-12T03:29:52.617Z,9.10
2022-12-12T03:30:52.630Z,7.80
2022-12-12T03:31:52.607Z,8.00
2022-12-12T03:32:52.616Z,9.00
2022-12-12T03:33:52.573Z,7.20
2022-12-12T03:34:52.550Z,7.80
2022-12-12T03:35:52.579Z,5.70
2022-12-12T03:36:52.536Z,7.60
2022-12-12T03:37:52.532Z,7.90
2022-12-12T03:38:52.510Z,8.60
2022-12-12T03:39:52.499Z,8.20
2022-12-12T03:40:52.488Z,7.60
2022-12-12T03:41:52.478Z,7.30
2022-12-12T03:42:52.496Z,7.60
2022-12-12T03:43:52.465Z,7.00
2022-12-12T03:44:52.453Z,8.00
2022-12-12T03:45:52.584Z,7.10
2022-12-12T03:46:52.420Z,8.40
2022-12-12T03:47:52.446Z,7.10
2022-12-12T03:48:52.426Z,6.70
2022-12-12T03:49:52.392Z,6.30
2022-12-12T03:50:52.417Z,6.30
2022-12-12T03:51:52.378Z,5.80
2022-12-12T03:52:52.384Z,5.90
2022-12-12T03:53:52.349Z,6.60
2022-12-12T03:54:52.360Z,7.00
2022-12-12T03:55:52.327Z,6.60
2022-12-12T03:56:52.328Z,6.60
2022-12-12T03:57:52.347Z,7.50
2022-12-12T03:58:52.308Z,7.00
2022-12-12T03:59:52.304Z,6.00
2022-12-12T04:00:52.352Z,5.80
2022-12-12T04:01:52.318Z,5.90
2022-12-12T04:02:52.282Z,6.80
2022-12-12T04:03:52.280Z,6.30
2022-12-12T04:04:52.241Z,7.30
2022-12-12T04:05:52.228Z,6.70
2022-12-12T04:06:52.225Z,6.20
2022-12-12T04:07:52.301Z,5.60
2022-12-12T04:08:52.238Z,6.40
2022-12-12T04:09:52.192Z,7.30
2022-12-12T04:10:52.179Z,7.50
2022-12-12T04:11:52.203Z,6.60
2022-12-12T04:12:52.242Z,6.90
2022-12-12T04:13:52.149Z,5.40
2022-12-12T04:14:52.158Z,6.60
2022-12-12T04:15:52.160Z,6.40
2022-12-12T04:16:52.214Z,7.70
2022-12-12T04:17:52.145Z,6.80
2022-12-12T04:18:52.098Z,7.90
2022-12-12T04:19:52.143Z,5.90
2022-12-12T04:20:52.067Z,6.70
2022-12-12T04:21:52.107Z,8.10
2022-12-12T04:22:52.047Z,6.60
2022-12-12T04:23:52.099Z,6.70
2022-12-12T04:24:52.033Z,6.50
2022-12-12T04:25:52.058Z,6.10
2022-12-12T04:26:52.028Z,5.40
2022-12-12T04:27:52.036Z,5.70
2022-12-12T04:28:52.018Z,6.10
2022-12-12T04:29:51.981Z,6.90
2022-12-12T04:30:51.974Z,6.10
2022-12-12T04:31:52.024Z,5.90
2022-12-12T04:32:51.994Z,6.70
2022-12-12T04:33:51.961Z,7.80
2022-12-12T04:34:51.929Z,7.20
2022-12-12T04:35:51.926Z,7.10
2022-12-12T04:36:51.915Z,7.20
2022-12-12T04:37:51.903Z,7.80
2022-12-12T04:38:51.919Z,6.70
2022-12-12T04:39:51.893Z,7.70
2022-12-12T04:40:51.868Z,7.10
2022-12-12T04:41:51.865Z,6.70
2022-12-12T04:42:51.845Z,6.20
2022-12-12T04:43:51.862Z,6.60
2022-12-12T04:44:51.826Z,6.70
2022-12-12T04:45:51.900Z,6.60
2022-12-12T04:46:51.843Z,5.30
2022-12-12T04:47:51.796Z,6.00
2022-12-12T04:48:53.689Z,5.70
2022-12-12T04:49:51.798Z,6.30
2022-12-12T04:50:51.763Z,6.50
2022-12-12T04:51:51.769Z,6.30
2022-12-12T04:52:51.752Z,6.30
2022-12-12T04:53:51.828Z,5.90
2022-12-12T04:54:51.726Z,6.40
2022-12-12T04:55:51.724Z,6.40
2022-12-12T04:56:51.700Z,6.70
2022-12-12T04:57:51.698Z,5.60
2022-12-12T04:58:51.729Z,5.90
2022-12-12T04:59:51.682Z,6.50
2022-12-12T05:00:51.748Z,5.60
2022-12-12T05:01:53.579Z,6.60
2022-12-12T05:02:51.641Z,7.10
2022-12-12T05:03:51.758Z,6.40
2022-12-12T05:04:51.621Z,6.70
2022-12-12T05:05:51.626Z,6.80
2022-12-12T05:06:51.604Z,7.30
2022-12-12T05:07:51.646Z,7.10
2022-12-12T05:08:51.572Z,5.10
2022-12-12T05:09:51.638Z,7.00
2022-12-12T05:10:51.650Z,6.20
2022-12-12T05:11:51.556Z,6.10
2022-12-12T05:12:51.593Z,5.90
2022-12-12T05:13:51.555Z,7.00
2022-12-12T05:14:51.544Z,6.00
2022-12-12T05:15:51.515Z,7.50
2022-12-12T05:16:51.559Z,7.10
2022-12-12T05:17:51.507Z,6.00
2022-12-12T05:18:51.505Z,6.50
2022-12-12T05:19:51.496Z,7.20
2022-12-12T05:20:51.462Z,6.30
2022-12-12T05:21:51.453Z,6.80
2022-12-12T05:22:51.441Z,5.70
2022-12-12T05:23:51.448Z,7.20
2022-12-12T05:24:51.456Z,6.90
2022-12-12T05:25:51.416Z,6.90
2022-12-12T05:26:51.402Z,6.50
2022-12-12T05:27:51.399Z,7.50
2022-12-12T05:28:51.387Z,7.80
2022-12-12T05:29:51.425Z,6.90
2022-12-12T05:30:51.440Z,7.10
2022-12-12T05:31:51.367Z,6.80
2022-12-12T05:32:51.336Z,7.60
2022-12-12T05:33:51.329Z,7.00
2022-12-12T05:34:51.347Z,6.80
2022-12-12T05:35:51.308Z,6.90
2022-12-12T05:36:51.333Z,8.20
2022-12-12T05:37:52.163Z,7.80
2022-12-12T05:38:51.295Z,6.90
2022-12-12T05:39:51.291Z,6.90
2022-12-12T05:40:51.277Z,6.60
2022-12-12T05:41:51.248Z,6.60
2022-12-12T05:42:51.232Z,7.40
2022-12-12T05:43:51.226Z,6.60
2022-12-12T05:44:51.242Z,8.10
2022-12-12T05:45:51.248Z,6.90
2022-12-12T05:46:51.188Z,6.30
2022-12-12T05:47:51.185Z,7.90
2022-12-12T05:48:51.189Z,8.50
2022-12-12T05:49:51.193Z,7.60
2022-12-12T05:50:51.210Z,7.20
2022-12-12T05:51:51.150Z,6.50
2022-12-12T05:52:51.136Z,6.50
2022-12-12T05:53:51.137Z,6.60
2022-12-12T05:54:51.137Z,6.20
2022-12-12T05:55:51.103Z,7.20
2022-12-12T05:56:51.097Z,7.30
2022-12-12T05:57:51.128Z,7.10
2022-12-12T05:58:51.066Z,7.30
2022-12-12T05:59:51.084Z,7.10
2022-12-12T06:00:51.056Z,5.90
2022-12-12T06:01:51.091Z,7.30
2022-12-12T06:02:51.080Z,6.50
2022-12-12T06:03:51.074Z,7.10
2022-12-12T06:04:51.053Z,7.00
2022-12-12T06:05:50.999Z,7.90
2022-12-12T06:06:50.989Z,6.30
2022-12-12T06:07:51.017Z,7.20
2022-12-12T06:08:51.005Z,6.40
2022-12-12T06:09:51.022Z,7.20
2022-12-12T06:10:50.964Z,7.60
2022-12-12T06:11:50.940Z,6.80
2022-12-12T06:12:50.964Z,6.40
2022-12-12T06:13:50.927Z,5.90
2022-12-12T06:14:50.954Z,6.50
2022-12-12T06:15:51.004Z,6.90
2022-12-12T06:16:50.890Z,8.50
2022-12-12T06:17:57.368Z,7.30
2022-12-12T06:18:50.863Z,7.00
2022-12-12T06:19:50.877Z,7.50
2022-12-12T06:20:50.845Z,6.90
2022-12-12T06:21:50.852Z,6.40
2022-12-12T06:22:53.708Z,6.00
2022-12-12T06:23:57.308Z,7.80
2022-12-12T06:24:50.848Z,7.10
2022-12-12T06:25:50.796Z,6.10
2022-12-12T06:26:50.786Z,7.60
2022-12-12T06:27:50.781Z,7.50
2022-12-12T06:28:50.766Z,6.50
2022-12-12T06:29:50.766Z,7.10
2022-12-12T06:30:50.803Z,8.00
2022-12-12T06:31:50.758Z,6.20
2022-12-12T06:32:50.747Z,6.70
2022-12-12T06:33:50.780Z,6.30
2022-12-12T06:34:50.711Z,7.70
2022-12-12T06:35:50.728Z,6.80
2022-12-12T06:36:50.697Z,7.00
2022-12-12T06:37:50.678Z,7.40
2022-12-12T06:38:50.665Z,7.10
2022-12-12T06:39:50.660Z,8.00
2022-12-12T06:40:50.744Z,7.00
2022-12-12T06:41:50.629Z,7.30
2022-12-12T06:42:50.639Z,7.10
2022-12-12T06:43:50.613Z,5.70
2022-12-12T06:44:50.601Z,7.20
2022-12-12T06:45:50.627Z,7.50
2022-12-12T06:46:50.578Z,7.60
2022-12-12T06:47:50.570Z,7.60
2022-12-12T06:48:50.560Z,7.20
2022-12-12T06:49:50.567Z,7.70
2022-12-12T06:50:50.565Z,6.80
2022-12-12T06:51:50.540Z,8.10
2022-12-12T06:52:50.542Z,8.20
2022-12-12T06:53:50.514Z,9.10
2022-12-12T06:54:50.513Z,7.90
2022-12-12T06:55:50.515Z,8.10
2022-12-12T06:56:50.489Z,7.40
2022-12-12T06:57:50.441Z,6.40
2022-12-12T06:58:50.438Z,6.30
2022-12-12T06:59:50.471Z,7.50
2022-12-12T07:00:50.420Z,6.30
2022-12-12T07:01:50.428Z,7.50
2022-12-12T07:02:50.448Z,6.60
2022-12-12T07:03:50.370Z,6.90
2022-12-12T07:04:50.374Z,7.80
2022-12-12T07:05:50.369Z,7.80
2022-12-12T07:06:50.371Z,7.10
2022-12-12T07:07:50.450Z,6.90
2022-12-12T07:08:50.363Z,7.50
2022-12-12T07:09:50.319Z,7.30
2022-12-12T07:10:50.304Z,8.30
2022-12-12T07:11:50.278Z,7.90
2022-12-12T07:12:54.562Z,7.40
2022-12-12T07:13:50.266Z,6.90
2022-12-12T07:14:50.250Z,6.90
2022-12-12T07:15:50.301Z,6.90
2022-12-12T07:16:50.218Z,6.90
2022-12-12T07:17:50.228Z,7.70
2022-12-12T07:18:50.236Z,7.30
2022-12-12T07:19:50.261Z,6.60
2022-12-12T07:20:50.200Z,8.40
2022-12-12T07:21:50.217Z,8.10
2022-12-12T07:22:50.168Z,8.10
2022-12-12T07:23:50.158Z,7.40
2022-12-12T07:24:50.141Z,7.00
2022-12-12T07:25:50.167Z,8.70
2022-12-12T07:26:50.113Z,6.10
2022-12-12T07:27:50.119Z,6.70
2022-12-12T07:28:50.132Z,7.30
2022-12-12T07:29:50.772Z,8.10
2022-12-12T07:30:50.146Z,8.80
2022-12-12T07:31:50.090Z,6.70
2022-12-12T07:32:50.191Z,6.90
2022-12-12T07:33:50.077Z,7.50
2022-12-12T07:34:50.035Z,7.30
2022-12-12T07:35:50.060Z,6.90
2022-12-12T07:36:50.022Z,8.80
2022-12-12T07:37:50.009Z,7.90
2022-12-12T07:38:50.024Z,7.50
2022-12-12T07:39:49.994Z,7.80
2022-12-12T07:40:50.014Z,8.00
2022-12-12T07:41:50.019Z,7.40
2022-12-12T07:42:49.963Z,7.80
2022-12-12T07:43:50.076Z,8.00
2022-12-12T07:44:49.950Z,8.80
2022-12-12T07:45:49.964Z,7.20
2022-12-12T07:46:50.034Z,8.00
2022-12-12T07:47:49.914Z,6.80
2022-12-12T07:48:49.899Z,7.20
2022-12-12T07:49:49.902Z,8.00
2022-12-12T07:50:49.931Z,8.50
2022-12-12T07:51:49.867Z,7.90
2022-12-12T07:52:49.845Z,6.80
2022-12-12T07:53:49.840Z,8.20
2022-12-12T07:54:49.863Z,7.90
2022-12-12T07:55:49.869Z,6.50
2022-12-12T07:56:49.834Z,6.70
2022-12-12T07:57:49.795Z,7.70
2022-12-12T07:58:49.797Z,8.00
2022-12-12T07:59:49.784Z,7.10
2022-12-12T08:00:49.764Z,7.60
2022-12-12T08:01:49.849Z,6.80
2022-12-12T08:02:49.807Z,8.00
2022-12-12T08:03:49.748Z,8.30
2022-12-12T08:04:49.795Z,7.50
2022-12-12T08:05:49.724Z,8.10
2022-12-12T08:06:54.022Z,7.40
2022-12-12T08:07:49.820Z,7.50
2022-12-12T08:08:49.694Z,7.40
2022-12-12T08:09:49.687Z,8.40
2022-12-12T08:10:49.665Z,8.70
2022-12-12T08:11:49.693Z,7.80
2022-12-12T08:12:49.672Z,7.00
2022-12-12T08:13:49.648Z,7.30
2022-12-12T08:14:49.637Z,8.00
2022-12-12T08:15:49.700Z,8.60
2022-12-12T08:16:49.634Z,8.50
2022-12-12T08:17:49.595Z,7.20
2022-12-12T08:18:49.608Z,7.10
2022-12-12T08:19:49.580Z,8.20
2022-12-12T08:20:49.594Z,7.80
2022-12-12T08:21:49.614Z,9.70
2022-12-12T08:22:49.551Z,9.30
2022-12-12T08:23:49.530Z,8.10
2022-12-12T08:24:49.533Z,9.30
2022-12-12T08:25:49.511Z,7.60
2022-12-12T08:26:49.524Z,9.10
2022-12-12T08:27:49.498Z,9.50
2022-12-12T08:28:49.542Z,9.50
2022-12-12T08:29:49.472Z,7.30
2022-12-12T08:30:49.480Z,8.60
2022-12-12T08:31:49.533Z,7.50
2022-12-12T08:32:49.450Z,7.20
2022-12-12T08:33:49.431Z,7.30
2022-12-12T08:34:49.423Z,7.50
2022-12-12T08:35:49.429Z,8.70
2022-12-12T08:36:49.429Z,7.50
2022-12-12T08:37:49.430Z,8.30
2022-12-12T08:38:49.435Z,8.40
2022-12-12T08:39:54.188Z,8.40
2022-12-12T08:40:49.452Z,8.40
2022-12-12T08:41:49.397Z,7.00
2022-12-12T08:42:49.345Z,8.80
2022-12-12T08:43:49.357Z,7.30
2022-12-12T08:44:49.322Z,6.80
2022-12-12T08:45:49.301Z,5.90
2022-12-12T08:46:49.395Z,7.10
2022-12-12T08:47:49.307Z,7.20
2022-12-12T08:48:49.280Z,7.50
2022-12-12T08:49:49.326Z,8.60
2022-12-12T08:50:49.284Z,7.90
2022-12-12T08:51:49.287Z,9.20
2022-12-12T08:52:49.251Z,7.90
2022-12-12T08:53:49.218Z,9.20
2022-12-12T08:54:49.215Z,8.90
2022-12-12T08:55:49.201Z,8.10
2022-12-12T08:56:49.271Z,7.40
2022-12-12T08:57:49.180Z,8.00
2022-12-12T08:58:49.172Z,8.60
2022-12-12T08:59:49.175Z,9.30
2022-12-12T09:00:49.170Z,8.90
2022-12-12T09:01:49.314Z,7.40
2022-12-12T09:02:49.268Z,7.40
2022-12-12T09:03:49.132Z,7.70
2022-12-12T09:04:49.117Z,9.20
2022-12-12T09:05:49.119Z,8.20
2022-12-12T09:06:49.131Z,7.20
2022-12-12T09:07:49.134Z,8.10
2022-12-12T09:08:49.094Z,8.10
2022-12-12T09:09:49.054Z,9.00
2022-12-12T09:10:49.054Z,8.50
2022-12-12T09:11:49.061Z,9.10
2022-12-12T09:12:49.031Z,9.10
2022-12-12T09:13:49.021Z,8.00
2022-12-12T09:14:49.038Z,7.30
2022-12-12T09:15:49.048Z,8.10
2022-12-12T09:16:49.019Z,8.00
2022-12-12T09:17:48.984Z,8.20
2022-12-12T09:18:49.660Z,8.20
2022-12-12T09:19:49.007Z,7.20
2022-12-12T09:20:48.992Z,8.50
2022-12-12T09:21:48.960Z,8.20
2022-12-12T09:22:48.936Z,7.40
2022-12-12T09:23:48.929Z,8.30
2022-12-12T09:24:48.938Z,9.00
2022-12-12T09:25:48.901Z,9.20
2022-12-12T09:26:48.942Z,9.00
2022-12-12T09:27:48.889Z,6.60
2022-12-12T09:28:48.866Z,6.90
2022-12-12T09:29:48.904Z,7.70
2022-12-12T09:30:48.846Z,7.40
2022-12-12T09:31:48.922Z,8.50
2022-12-12T09:32:48.844Z,9.40
2022-12-12T09:33:48.846Z,8.10
2022-12-12T09:34:48.812Z,7.80
2022-12-12T09:35:48.830Z,8.50
2022-12-12T09:36:48.788Z,9.40
2022-12-12T09:37:48.792Z,8.00
2022-12-12T09:38:48.778Z,7.20
2022-12-12T09:39:48.748Z,8.50
2022-12-12T09:40:48.790Z,8.80
2022-12-12T09:41:48.763Z,9.00
2022-12-12T09:42:48.750Z,8.60
2022-12-12T09:43:48.723Z,9.10
2022-12-12T09:44:48.702Z,8.80
2022-12-12T09:45:48.724Z,8.90
2022-12-12T09:46:48.738Z,7.70
2022-12-12T09:47:48.706Z,9.60
2022-12-12T09:48:48.670Z,9.10
2022-12-12T09:49:48.653Z,8.20
2022-12-12T09:50:48.666Z,7.60
2022-12-12T09:51:48.645Z,7.10
2022-12-12T09:52:48.645Z,7.40
2022-12-12T09:53:48.608Z,7.00
2022-12-12T09:54:48.623Z,8.40
2022-12-12T09:55:48.606Z,8.40
2022-12-12T09:56:48.624Z,7.80
2022-12-12T09:57:48.590Z,9.20
2022-12-12T09:58:53.874Z,8.70
2022-12-12T09:59:48.567Z,8.60
2022-12-12T10:00:48.593Z,8.70
2022-12-12T10:01:48.591Z,7.60
2022-12-12T10:02:48.616Z,7.60
2022-12-12T10:03:48.507Z,9.10
2022-12-12T10:04:51.054Z,7.20
2022-12-12T10:05:51.192Z,7.50
2022-12-12T10:06:48.521Z,9.10
2022-12-12T10:07:48.532Z,7.70
2022-12-12T10:08:48.462Z,8.20
2022-12-12T10:09:48.449Z,9.10
2022-12-12T10:10:48.441Z,8.60
2022-12-12T10:11:48.460Z,7.70
2022-12-12T10:12:48.453Z,7.60
2022-12-12T10:13:48.405Z,7.70
2022-12-12T10:14:48.421Z,9.10
2022-12-12T10:15:48.385Z,8.50
2022-12-12T10:16:52.428Z,7.20
2022-12-12T10:17:48.396Z,8.20
2022-12-12T10:18:48.362Z,7.50
2022-12-12T10:19:48.370Z,8.60
2022-12-12T10:20:48.341Z,7.80
2022-12-12T10:21:48.327Z,9.80
2022-12-12T10:22:48.350Z,8.80
2022-12-12T10:23:48.300Z,8.60
2022-12-12T10:24:48.320Z,8.90
2022-12-12T10:25:48.281Z,10.10
2022-12-12T10:26:48.285Z,8.40
2022-12-12T10:27:48.306Z,8.60
2022-12-12T10:28:48.285Z,10.50
2022-12-12T10:29:48.253Z,8.80
2022-12-12T10:30:48.239Z,8.70
2022-12-12T10:31:48.295Z,8.80
2022-12-12T10:32:48.253Z,8.50
2022-12-12T10:33:54.705Z,9.90
2022-12-12T10:34:55.285Z,8.40
2022-12-12T10:35:48.183Z,7.80
2022-12-12T10:36:54.660Z,9.90
2022-12-12T10:37:48.202Z,9.00
2022-12-12T10:38:48.187Z,9.10
2022-12-12T10:39:48.137Z,10.70
2022-12-12T10:40:48.149Z,8.80
2022-12-12T10:41:48.121Z,9.40
2022-12-12T10:42:48.110Z,9.40
2022-12-12T10:43:48.127Z,8.20
2022-12-12T10:44:48.108Z,9.70
2022-12-12T10:45:48.146Z,8.80
2022-12-12T10:46:48.136Z,10.30
2022-12-12T10:47:48.058Z,9.50
2022-12-12T10:48:48.109Z,9.60
2022-12-12T10:49:48.052Z,8.20
2022-12-12T10:50:48.044Z,9.80
2022-12-12T10:51:48.022Z,9.80
2022-12-12T10:52:48.033Z,8.80
2022-12-12T10:53:48.026Z,8.90
2022-12-12T10:54:48.003Z,7.90
2022-12-12T10:55:47.996Z,9.10
2022-12-12T10:56:47.967Z,9.80
2022-12-12T10:57:47.965Z,9.10
2022-12-12T10:58:47.980Z,9.20
2022-12-12T10:59:47.945Z,10.40
2022-12-12T11:00:47.983Z,9.50
2022-12-12T11:02:09.726Z,9.00
2022-12-12T11:02:48.055Z,9.10
2022-12-12T11:03:47.927Z,9.10
2022-12-12T11:04:47.900Z,10.30
2022-12-12T11:05:47.897Z,9.40
2022-12-12T11:06:47.939Z,8.30
2022-12-12T11:07:47.931Z,9.40
2022-12-12T11:08:47.893Z,9.30
2022-12-12T11:09:47.846Z,11.10
2022-12-12T11:10:47.872Z,10.40
2022-12-12T11:11:47.815Z,11.30
2022-12-12T11:12:47.819Z,10.80
2022-12-12T11:13:47.824Z,9.50
2022-12-12T11:14:47.824Z,9.70
2022-12-12T11:15:47.819Z,9.30
2022-12-12T11:16:47.844Z,9.60
2022-12-12T11:17:47.761Z,8.90
2022-12-12T11:18:47.781Z,10.00
2022-12-12T11:19:47.766Z,8.70
2022-12-12T11:20:47.789Z,10.60
2022-12-12T11:21:47.740Z,9.30
2022-12-12T11:22:47.714Z,8.60
2022-12-12T11:23:47.717Z,9.60
2022-12-12T11:24:47.715Z,9.70
2022-12-12T11:25:47.704Z,9.40
2022-12-12T11:26:48.394Z,10.30
2022-12-12T11:27:47.663Z,10.30
2022-12-12T11:28:47.711Z,9.90
2022-12-12T11:29:47.648Z,10.70
2022-12-12T11:30:47.657Z,10.20
2022-12-12T11:31:47.631Z,9.80
2022-12-12T11:32:47.642Z,11.00
2022-12-12T11:33:47.655Z,10.20
2022-12-12T11:34:47.631Z,9.90
2022-12-12T11:35:48.132Z,9.40
2022-12-12T11:36:47.580Z,10.20
2022-12-12T11:37:47.565Z,11.50
2022-12-12T11:38:47.596Z,9.80
2022-12-12T11:39:47.533Z,12.00
2022-12-12T11:40:47.535Z,10.10
2022-12-12T11:41:47.519Z,10.40
2022-12-12T11:42:47.507Z,9.40
2022-12-12T11:43:47.539Z,10.50
2022-12-12T11:44:47.517Z,8.80
2022-12-12T11:45:47.542Z,10.80
2022-12-12T11:46:47.489Z,10.80
2022-12-12T11:47:47.453Z,9.50
2022-12-12T11:48:47.456Z,9.50
2022-12-12T11:49:47.475Z,9.20
2022-12-12T11:50:47.460Z,10.90
2022-12-12T11:51:47.420Z,10.10
2022-12-12T11:52:47.419Z,11.10
2022-12-12T11:53:47.398Z,10.70
2022-12-12T11:54:47.453Z,9.50
2022-12-12T11:55:47.372Z,8.30
2022-12-12T11:56:47.361Z,9.00
2022-12-12T11:57:47.358Z,11.20
2022-12-12T11:58:47.346Z,9.70
2022-12-12T11:59:47.349Z,10.00
2022-12-12T12:00:47.321Z,9.40
2022-12-12T12:01:47.330Z,9.80
2022-12-12T12:02:47.363Z,9.70
2022-12-12T12:03:47.283Z,9.50
2022-12-12T12:04:52.856Z,10.80
2022-12-12T12:05:47.294Z,8.90
2022-12-12T12:06:47.270Z,8.90
2022-12-12T12:07:47.304Z,9.60
2022-12-12T12:08:47.276Z,10.00
2022-12-12T12:09:47.283Z,11.00
2022-12-12T12:10:47.215Z,9.00
2022-12-12T12:11:47.202Z,9.40
2022-12-12T12:12:47.209Z,10.10
2022-12-12T12:13:47.227Z,8.70
2022-12-12T12:14:47.212Z,9.70
2022-12-12T12:15:47.178Z,9.50
2022-12-12T12:16:47.380Z,10.00
2022-12-12T12:17:47.139Z,10.80
2022-12-12T12:18:47.133Z,10.60
2022-12-12T12:19:47.141Z,10.50
2022-12-12T12:20:47.109Z,11.50
2022-12-12T12:21:47.099Z,10.40
2022-12-12T12:22:47.092Z,11.70
2022-12-12T12:23:50.377Z,8.80
2022-12-12T12:24:47.106Z,9.80
2022-12-12T12:25:47.078Z,9.30
2022-12-12T12:26:47.045Z,9.10
2022-12-12T12:27:47.041Z,10.20
2022-12-12T12:28:47.033Z,8.70
2022-12-12T12:29:47.047Z,9.10
2022-12-12T12:30:47.015Z,10.20
2022-12-12T12:31:47.008Z,9.70
2022-12-12T12:32:46.988Z,9.50
2022-12-12T12:33:47.040Z,9.60
2022-12-12T12:34:46.986Z,9.00
2022-12-12T12:35:46.948Z,8.60
2022-12-12T12:36:46.989Z,8.00
2022-12-12T12:37:46.932Z,8.80
2022-12-12T12:38:46.930Z,8.70
2022-12-12T12:39:47.037Z,9.00
2022-12-12T12:40:46.927Z,8.10
2022-12-12T12:41:46.900Z,7.70
2022-12-12T12:42:49.876Z,8.80
2022-12-12T12:43:46.874Z,10.10
2022-12-12T12:44:46.920Z,8.40
2022-12-12T12:45:46.902Z,9.20
2022-12-12T12:46:46.837Z,8.20
2022-12-12T12:47:46.838Z,9.20
2022-12-12T12:48:46.837Z,8.40
2022-12-12T12:49:46.981Z,8.90
2022-12-12T12:50:46.833Z,9.50
2022-12-12T12:51:50.235Z,9.20
2022-12-12T12:52:46.781Z,8.40
2022-12-12T12:53:46.795Z,10.50
2022-12-12T12:54:46.768Z,7.60
2022-12-12T12:55:46.781Z,8.30
2022-12-12T12:56:46.743Z,9.70
2022-12-12T12:57:46.735Z,9.80
2022-12-12T12:58:46.805Z,9.10
2022-12-12T12:59:46.722Z,8.00
2022-12-12T13:00:46.726Z,9.90
2022-12-12T13:01:46.788Z,10.20
2022-12-12T13:02:46.769Z,10.30
2022-12-12T13:03:46.756Z,10.20
2022-12-12T13:04:46.687Z,12.00
2022-12-12T13:05:46.717Z,11.70
2022-12-12T13:06:46.663Z,9.80
2022-12-12T13:07:46.717Z,12.00
2022-12-12T13:08:46.678Z,10.80
2022-12-12T13:09:46.742Z,12.10
2022-12-12T13:10:46.625Z,10.40
2022-12-12T13:11:46.595Z,9.90
2022-12-12T13:12:46.607Z,10.00
2022-12-12T13:13:46.655Z,9.90
2022-12-12T13:14:46.711Z,11.40
2022-12-12T13:15:46.602Z,10.50
2022-12-12T13:16:46.536Z,11.70